Cuthbert, GA (39840)

3:11 AM EDT on October 25, 2014 (GMT -0400)
Pebble Cove | Change Station
CLOSE
Current Station
Personal Weather Station
Location: Abbeville, AL
Elevation: 226 ft
Nearby Weather Stations

Elev 226 ft 31.71 °N, 85.13 °W | Updated 6 seconds ago

Clear
Clear
52.8 °F
Feels Like 52.8 °F
N
1.0
Wind Variable Wind from WSW

Today
High -- | Low -- °F
--% Chance of Precip.
Yesterday
High -- | Low -- °F
Precip. -- in
7:49 AM 6:56 PM
New Moon, 2% visible
Pressure 30.03 in
Visibility 4.0 miles
Clouds Clear
Dew Point 51 °F
Humidity 92%
Rainfall 0.00 in
Snow Depth Not available.
UV 0.0 out of 12
Pollen 1.50 out of 12
Air Quality Not available.
Flu Activity Sporadic
METAR KEUF 250658Z AUTO 00000KT 4SM BR CLR 07/07 A3003 RMK AO2 SLP167 T00720067 $

More Conditions Fewer Conditions

Pressure 30.03 in
Visibility 4.0 miles
Clouds Clear
Dew Point 51 °F
Humidity 92%
Rainfall 0.00 in
Snow Depth Not available.
UV 0.0 out of 12
Pollen 1.50 out of 12
Air Quality Not available.
Flu Activity Sporadic
METAR KEUF 250658Z AUTO 00000KT 4SM BR CLR 07/07 A3003 RMK AO2 SLP167 T00720067 $

More Conditions Fewer Conditions

10-Day Weather Forecast

Almanac

Astronomy

Oct. 25, 2014 Rise Set
Actual Time 7:49 AM EDT 6:56 PM EDT
Civil Twilight 7:24 AM EDT 7:20 PM EDT
Nautical Twilight 6:56 AM EDT 7:49 PM EDT
Astronomical Twilight 6:28 AM EDT 8:17 PM EDT
Moon 9:23 AM EDT 8:23 PM EDT
Length of Visible Light 11h 56m
Length of Day
11h 06m
Tomorrow will be 1m 47s shorter.
New Moon, 2% of the Moon is Illuminated
Today
New Moon
Oct 30
First Quarter
Nov 6
Full
Nov 14
Last Quarter
Nov 22
New

Today's Extremes

State Highs State Lows

Community

WunderPhotos

Upload Photos

1,764,789 photos uploaded!

Nearby

Snow Depth

Station Depth Elevation
No new snow has been reported.

Earthquake Activity

City Distance Mag. Time & Date
No recent earthquake activity has been reported nearby.
Minimum magnitude displayed is 2.5.

Coastal Water Temperatures

Place Temperature
No Stations Reporting

Nearby Weather Stations